Portada
METAR-TAF:

METAR-TAF

Aeropuertos :

Colmenar Viejo, España

latitud: 40-39N, longitud: 003-44W, altitud: -999 m

Observación

El informe se hizo hace 7 horas y 41 minutos, a las 18:00 UTC
Viento calma
Temperatura 19°C
Humedad 56%
Presión 1016 hPa
Visibilidad 10 km o más
Nubes dispersas a una altura de 3000 ft, Cumulus congestus.
Nubes dispersas a una altura de 5000 ft

METAR: LECV 221800Z 00000KT 9999 SCT030TCU SCT050 19/10 Q1016

Hora: 03:41 (01:41 UTC)

Pronóstico

El informe se hizo hace 8 horas y 41 minutos, a las 17:00 UTC
Pronóstico válido del 22 a las 18 UTC al 23 a las 03 UTC
Viento 4 kt con dirección variable
Visibilidad 10 km o más
Escasas nubes a una altura de 3000 ft
Temporalmente
del 22 a las 18 UTC al 22 a las 20 UTC
Escasas nubes a una altura de 3000 ft, Cumulonimbus.
Temporalmente
del 22 a las 23 UTC al 23 a las 03 UTC
Viento 7 kt del noreste

TAF: LECV 221700Z 2218/2303 VRB04KT 9999 FEW030 TEMPO 2218/2220 FEW030CB TEMPO 2223/2303 05007KT

Observaciones y pronósticos meteorológicos de más de 4000 aeropuertos (mensajes METAR y TAF).

Los puntos amarillos y rojos representan las estaciones disponibles.

Ponga el ratón en el punto deseado para ver el nombre de la estación.

Haga clic para ver las observaciones y los pronósticos meteorológicos.

Para cambiar el mapa : haga clic en los botones verdes con una cruz de color negro para hacer un zoom, en el botón verde con un guión para alejar o en las flechas verdes para mapas adyacentes.


METAR-TAF: